createdAt,value
2018-12-01T00:00:46.056Z,6.80
2018-12-01T00:03:15.782Z,6.80
2018-12-01T00:05:45.440Z,6.80
2018-12-01T00:08:14.976Z,6.80
2018-12-01T00:10:44.740Z,6.80
2018-12-01T00:13:14.263Z,6.80
2018-12-01T00:15:44.074Z,6.80
2018-12-01T00:18:13.821Z,6.80
2018-12-01T00:20:43.694Z,6.80
2018-12-01T00:23:13.220Z,6.80
2018-12-01T00:25:42.720Z,6.80
2018-12-01T00:28:12.605Z,6.70
2018-12-01T00:30:42.355Z,6.70
2018-12-01T00:33:12.065Z,6.70
2018-12-01T00:35:41.803Z,6.70
2018-12-01T00:38:11.538Z,6.70
2018-12-01T00:40:41.004Z,6.70
2018-12-01T00:43:10.698Z,6.70
2018-12-01T00:45:40.437Z,6.70
2018-12-01T00:48:10.102Z,6.70
2018-12-01T00:50:39.674Z,6.70
2018-12-01T00:53:09.686Z,6.70
2018-12-01T00:55:39.343Z,6.70
2018-12-01T00:58:08.976Z,6.70
2018-12-01T01:00:38.707Z,6.70
2018-12-01T01:03:08.521Z,6.70
2018-12-01T01:05:38.324Z,6.70
2018-12-01T01:08:08.020Z,6.70
2018-12-01T01:10:37.795Z,6.70
2018-12-01T01:13:07.154Z,6.70
2018-12-01T01:15:36.568Z,6.70
2018-12-01T01:18:06.542Z,6.70
2018-12-01T01:20:36.152Z,6.80
2018-12-01T01:23:06.161Z,6.80
2018-12-01T01:25:35.905Z,6.80
2018-12-01T01:28:06.108Z,6.80
2018-12-01T01:30:35.870Z,6.70
2018-12-01T01:33:16.605Z,6.80
2018-12-01T01:35:46.396Z,6.80
2018-12-01T01:38:15.928Z,6.80
2018-12-01T01:40:45.670Z,6.80
2018-12-01T01:43:15.183Z,6.80
2018-12-01T01:45:44.858Z,6.80
2018-12-01T01:48:14.296Z,6.80
2018-12-01T01:50:43.940Z,6.80
2018-12-01T01:53:13.722Z,6.80
2018-12-01T01:55:43.368Z,6.80
2018-12-01T01:58:12.759Z,6.80
2018-12-01T02:00:42.606Z,6.80
2018-12-01T02:03:12.363Z,6.80
2018-12-01T02:05:41.948Z,6.80
2018-12-01T02:08:11.604Z,6.80
2018-12-01T02:10:41.162Z,6.80
2018-12-01T02:13:10.904Z,6.80
2018-12-01T02:15:40.452Z,6.80
2018-12-01T02:18:10.141Z,6.80
2018-12-01T02:20:39.743Z,6.80
2018-12-01T02:23:09.354Z,6.80
2018-12-01T02:25:39.131Z,6.80
2018-12-01T02:28:08.762Z,6.80
2018-12-01T02:30:38.568Z,6.90
2018-12-01T02:33:08.210Z,6.90
2018-12-01T02:35:37.890Z,6.80
2018-12-01T02:38:07.444Z,6.80
2018-12-01T02:40:37.204Z,6.80
2018-12-01T02:43:06.920Z,6.90
2018-12-01T02:45:47.533Z,6.90
2018-12-01T02:48:17.176Z,6.80
2018-12-01T02:50:46.828Z,6.90
2018-12-01T02:53:16.546Z,6.90
2018-12-01T02:55:46.475Z,6.90
2018-12-01T02:58:16.274Z,6.90
2018-12-01T03:00:45.975Z,6.80
2018-12-01T03:03:15.564Z,6.90
2018-12-01T03:05:45.338Z,6.90
2018-12-01T03:08:14.996Z,6.90
2018-12-01T03:10:44.647Z,6.90
2018-12-01T03:13:14.369Z,6.90
2018-12-01T03:15:44.031Z,6.90
2018-12-01T03:18:13.793Z,6.90
2018-12-01T03:20:43.342Z,6.90
2018-12-01T03:23:12.965Z,6.90
2018-12-01T03:25:42.608Z,6.90
2018-12-01T03:28:12.389Z,6.90
2018-12-01T03:30:42.007Z,6.90
2018-12-01T03:33:11.571Z,6.90
2018-12-01T03:35:41.056Z,6.90
2018-12-01T03:38:10.770Z,6.90
2018-12-01T03:40:45.604Z,6.90
2018-12-01T03:43:15.246Z,6.90
2018-12-01T03:45:44.836Z,6.90
2018-12-01T03:48:14.515Z,6.90
2018-12-01T03:50:44.243Z,6.90
2018-12-01T03:53:13.909Z,6.90
2018-12-01T03:55:43.615Z,6.90
2018-12-01T03:58:13.219Z,6.90
2018-12-01T04:00:42.981Z,6.90
2018-12-01T04:03:12.650Z,6.90
2018-12-01T04:05:42.443Z,6.90
2018-12-01T04:08:11.928Z,7.00
2018-12-01T04:10:41.622Z,7.00
2018-12-01T04:13:11.369Z,7.00
2018-12-01T04:15:40.916Z,7.00
2018-12-01T04:18:10.503Z,7.00
2018-12-01T04:20:40.146Z,7.00
2018-12-01T04:23:09.803Z,7.00
2018-12-01T04:25:39.352Z,7.00
2018-12-01T04:28:08.936Z,7.00
2018-12-01T04:30:38.423Z,6.90
2018-12-01T04:33:08.000Z,6.90
2018-12-01T04:35:37.706Z,6.90
2018-12-01T04:38:07.766Z,6.90
2018-12-01T04:40:37.475Z,6.90
2018-12-01T04:43:07.323Z,6.90
2018-12-01T04:45:36.869Z,6.90
2018-12-01T04:48:06.901Z,7.00
2018-12-01T04:50:36.509Z,6.90
2018-12-01T04:53:07.088Z,6.90
2018-12-01T04:55:36.820Z,6.90
2018-12-01T04:58:06.996Z,6.90
2018-12-01T05:00:36.676Z,6.90
2018-12-01T05:03:06.334Z,6.90
2018-12-01T05:05:35.824Z,6.90
2018-12-01T05:08:05.786Z,6.90
2018-12-01T05:10:35.416Z,6.90
2018-12-01T05:13:05.197Z,6.90
2018-12-01T05:15:34.932Z,6.90
2018-12-01T05:18:04.806Z,6.90
2018-12-01T05:20:34.542Z,6.90
2018-12-01T05:23:04.302Z,7.00
2018-12-01T05:25:33.892Z,7.00
2018-12-01T05:28:03.632Z,7.00
2018-12-01T05:30:33.052Z,7.00
2018-12-01T05:33:02.729Z,7.00
2018-12-01T05:35:32.377Z,7.00
2018-12-01T05:38:02.059Z,6.90
2018-12-01T05:40:31.622Z,7.00
2018-12-01T05:43:01.113Z,7.00
2018-12-01T05:45:30.812Z,7.00
2018-12-01T05:48:00.440Z,7.00
2018-12-01T05:50:30.090Z,7.00
2018-12-01T05:52:59.885Z,7.00
2018-12-01T05:55:29.415Z,7.00
2018-12-01T05:57:58.963Z,7.00
2018-12-01T06:00:28.806Z,7.00
2018-12-01T06:02:58.471Z,7.00
2018-12-01T06:05:28.111Z,7.00
2018-12-01T06:07:57.712Z,7.00
2018-12-01T06:10:27.419Z,7.00
2018-12-01T06:13:01.146Z,7.00
2018-12-01T06:15:31.161Z,7.00
2018-12-01T06:18:02.542Z,7.00
2018-12-01T06:20:32.245Z,7.00
2018-12-01T06:23:01.987Z,6.90
2018-12-01T06:25:31.548Z,7.00
2018-12-01T06:28:01.212Z,7.00
2018-12-01T06:30:30.811Z,7.00
2018-12-01T06:33:00.386Z,7.00
2018-12-01T06:35:30.096Z,7.00
2018-12-01T06:37:59.818Z,7.00
2018-12-01T06:40:29.704Z,7.00
2018-12-01T06:42:59.418Z,7.00
2018-12-01T06:45:29.104Z,7.00
2018-12-01T06:47:58.834Z,7.00
2018-12-01T06:50:28.293Z,7.00
2018-12-01T06:52:57.739Z,7.00
2018-12-01T06:55:27.481Z,7.00
2018-12-01T06:57:57.036Z,7.00
2018-12-01T07:00:26.928Z,7.00
2018-12-01T07:02:57.039Z,7.00
2018-12-01T07:05:26.540Z,7.00
2018-12-01T07:07:56.257Z,7.10
2018-12-01T07:10:25.977Z,7.10
2018-12-01T07:13:00.993Z,7.10
2018-12-01T07:15:33.366Z,7.00
2018-12-01T07:19:09.899Z,7.00
2018-12-01T07:21:39.526Z,7.00
2018-12-01T07:24:09.174Z,6.90
2018-12-01T07:26:38.946Z,6.90
2018-12-01T07:29:08.870Z,6.90
2018-12-01T07:31:38.650Z,6.90
2018-12-01T07:34:08.408Z,6.90
2018-12-01T07:36:37.948Z,6.90
2018-12-01T07:39:08.828Z,7.00
2018-12-01T07:41:38.310Z,7.00
2018-12-01T07:44:07.822Z,7.00
2018-12-01T07:46:37.547Z,7.00
2018-12-01T07:49:07.302Z,7.00
2018-12-01T07:51:36.914Z,7.10
2018-12-01T07:54:06.469Z,7.10
2018-12-01T07:56:35.788Z,7.10
2018-12-01T07:59:05.595Z,7.10
2018-12-01T08:01:35.485Z,7.20
2018-12-01T08:04:05.414Z,7.20
2018-12-01T08:06:35.192Z,7.20
2018-12-01T08:09:06.747Z,7.20
2018-12-01T08:11:36.591Z,7.10
2018-12-01T08:14:06.581Z,7.20
2018-12-01T08:16:36.192Z,7.20
2018-12-01T08:19:06.000Z,7.20
2018-12-01T08:21:35.743Z,7.20
2018-12-01T08:24:05.387Z,7.20
2018-12-01T08:26:35.142Z,7.20
2018-12-01T08:29:05.500Z,7.20
2018-12-01T08:31:35.184Z,7.20
2018-12-01T08:34:05.158Z,7.20
2018-12-01T08:36:34.821Z,7.20
2018-12-01T08:39:05.554Z,7.20
2018-12-01T08:41:35.068Z,7.20
2018-12-01T08:44:04.697Z,7.20
2018-12-01T08:46:34.253Z,7.20
2018-12-01T08:49:03.934Z,7.20
2018-12-01T08:51:33.572Z,7.20
2018-12-01T08:54:03.248Z,7.20
2018-12-01T08:56:32.913Z,7.20
2018-12-01T08:59:02.519Z,7.20
2018-12-01T09:01:32.302Z,7.30
2018-12-01T09:04:02.079Z,7.30
2018-12-01T09:06:31.600Z,7.30
2018-12-01T09:09:02.159Z,7.40
2018-12-01T09:11:31.930Z,7.30
2018-12-01T09:14:02.379Z,7.40
2018-12-01T09:16:32.377Z,7.40
2018-12-01T09:19:02.449Z,7.40
2018-12-01T09:21:32.978Z,7.40
2018-12-01T09:24:03.585Z,7.40
2018-12-01T09:26:33.401Z,7.40
2018-12-01T09:29:03.136Z,7.40
2018-12-01T09:31:33.348Z,7.50
2018-12-01T09:34:03.078Z,7.50
2018-12-01T09:36:32.829Z,7.50
2018-12-01T09:39:02.669Z,7.50
2018-12-01T09:41:32.188Z,7.50
2018-12-01T09:44:02.645Z,7.50
2018-12-01T09:46:34.645Z,7.50
2018-12-01T09:49:04.355Z,7.60
2018-12-01T09:51:34.500Z,7.60
2018-12-01T09:54:04.351Z,7.60
2018-12-01T09:57:37.091Z,7.60
2018-12-01T10:00:10.445Z,7.60
2018-12-01T10:02:40.008Z,7.60
2018-12-01T10:05:11.132Z,7.60
2018-12-01T10:07:40.918Z,7.60
2018-12-01T10:10:14.701Z,7.60
2018-12-01T10:12:44.919Z,7.70
2018-12-01T10:15:17.226Z,7.70
2018-12-01T10:17:47.226Z,7.70
2018-12-01T10:20:20.654Z,7.70
2018-12-01T10:22:50.644Z,7.80
2018-12-01T10:25:20.188Z,7.80
2018-12-01T10:27:50.049Z,7.80
2018-12-01T10:30:27.557Z,7.80
2018-12-01T10:32:57.904Z,7.70
2018-12-01T10:35:27.927Z,7.70
2018-12-01T10:38:05.555Z,7.80
2018-12-01T10:40:35.150Z,7.80
2018-12-01T10:43:04.785Z,7.80
2018-12-01T10:45:34.825Z,7.80
2018-12-01T10:48:04.719Z,7.80
2018-12-01T10:50:34.795Z,7.80
2018-12-01T10:53:04.562Z,7.90
2018-12-01T10:55:35.039Z,7.90
2018-12-01T10:58:07.218Z,7.90
2018-12-01T11:00:42.337Z,7.90
2018-12-01T11:03:17.099Z,7.90
2018-12-01T11:05:48.093Z,7.90
2018-12-01T11:08:18.018Z,7.90
2018-12-01T11:10:48.104Z,7.90
2018-12-01T11:13:18.000Z,8.00
2018-12-01T11:15:47.717Z,7.90
2018-12-01T11:18:17.680Z,7.90
2018-12-01T11:20:47.480Z,7.90
2018-12-01T11:23:16.968Z,7.90
2018-12-01T11:25:46.756Z,7.90
2018-12-01T11:28:16.338Z,7.90
2018-12-01T11:30:45.972Z,8.00
2018-12-01T11:33:15.827Z,8.00
2018-12-01T11:35:45.944Z,8.00
2018-12-01T11:38:15.744Z,8.00
2018-12-01T11:40:45.638Z,8.00
2018-12-01T11:43:15.012Z,8.10
2018-12-01T11:45:44.892Z,8.10
2018-12-01T11:48:14.623Z,8.10
2018-12-01T11:50:44.319Z,8.10
2018-12-01T11:53:14.356Z,8.20
2018-12-01T11:55:43.854Z,8.20
2018-12-01T11:58:13.567Z,8.20
2018-12-01T12:00:45.270Z,8.10
2018-12-01T12:03:14.972Z,8.10
2018-12-01T12:05:45.261Z,8.10
2018-12-01T12:08:18.782Z,8.10
2018-12-01T12:10:48.383Z,8.10
2018-12-01T12:13:18.460Z,8.10
2018-12-01T12:15:48.251Z,8.10
2018-12-01T12:18:18.052Z,8.20
2018-12-01T12:20:47.809Z,8.20
2018-12-01T12:23:17.433Z,8.20
2018-12-01T12:25:46.999Z,8.10
2018-12-01T12:28:16.728Z,8.10
2018-12-01T12:30:46.459Z,8.10
2018-12-01T12:33:16.125Z,8.10
2018-12-01T12:35:45.820Z,8.10
2018-12-01T12:38:15.567Z,8.10
2018-12-01T12:40:45.288Z,8.10
2018-12-01T12:43:15.314Z,8.10
2018-12-01T12:45:44.784Z,8.20
2018-12-01T12:48:14.486Z,8.20
2018-12-01T12:50:44.131Z,8.10
2018-12-01T12:53:13.758Z,8.10
2018-12-01T12:55:43.442Z,8.10
2018-12-01T12:58:13.105Z,8.20
2018-12-01T13:00:42.609Z,8.20
2018-12-01T13:03:12.623Z,8.20
2018-12-01T13:05:45.214Z,8.20
2018-12-01T13:08:17.945Z,8.30
2018-12-01T13:10:47.581Z,8.30
2018-12-01T13:13:17.174Z,8.30
2018-12-01T13:15:46.914Z,8.30
2018-12-01T13:18:16.543Z,8.40
2018-12-01T13:20:47.311Z,8.40
2018-12-01T13:23:17.021Z,8.30
2018-12-01T13:25:47.090Z,8.30
2018-12-01T13:28:19.085Z,8.30
2018-12-01T13:30:57.264Z,8.30
2018-12-01T13:33:27.827Z,8.30
2018-12-01T13:35:58.587Z,8.30
2018-12-01T13:38:29.247Z,8.30
2018-12-01T13:40:59.011Z,8.20
2018-12-01T13:43:28.875Z,8.20
2018-12-01T13:45:58.598Z,8.20
2018-12-01T13:48:28.470Z,8.20
2018-12-01T13:50:58.352Z,8.20
2018-12-01T13:53:28.130Z,8.20
2018-12-01T13:55:57.790Z,8.20
2018-12-01T13:58:27.550Z,8.20
2018-12-01T14:00:57.303Z,8.20
2018-12-01T14:03:27.075Z,8.30
2018-12-01T14:05:57.028Z,8.20
2018-12-01T14:08:26.592Z,8.20
2018-12-01T14:10:56.069Z,8.20
2018-12-01T14:13:25.510Z,8.20
2018-12-01T14:15:54.888Z,8.20
2018-12-01T14:18:24.512Z,8.20
2018-12-01T14:20:54.192Z,8.20
2018-12-01T14:23:23.775Z,8.20
2018-12-01T14:25:53.530Z,8.20
2018-12-01T14:28:23.640Z,8.20
2018-12-01T14:30:53.278Z,8.20
2018-12-01T14:33:23.071Z,8.20
2018-12-01T14:35:52.642Z,8.10
2018-12-01T14:38:22.317Z,8.10
2018-12-01T14:40:51.928Z,8.10
2018-12-01T14:43:21.618Z,8.10
2018-12-01T14:45:51.326Z,8.00
2018-12-01T14:48:20.988Z,8.00
2018-12-01T14:50:50.389Z,8.00
2018-12-01T14:53:20.186Z,8.00
2018-12-01T14:55:49.939Z,8.00
2018-12-01T14:58:19.427Z,8.00
2018-12-01T15:00:49.076Z,7.90
2018-12-01T15:03:18.718Z,7.90
2018-12-01T15:05:48.310Z,7.90
2018-12-01T15:08:17.856Z,7.90
2018-12-01T15:10:47.596Z,7.80
2018-12-01T15:13:17.181Z,7.80
2018-12-01T15:15:46.744Z,7.80
2018-12-01T15:18:16.544Z,7.70
2018-12-01T15:20:46.101Z,7.70
2018-12-01T15:23:16.058Z,7.70
2018-12-01T15:25:45.388Z,7.70
2018-12-01T15:28:15.006Z,7.70
2018-12-01T15:30:44.632Z,7.60
2018-12-01T15:33:16.278Z,7.60
2018-12-01T15:35:46.865Z,7.60
2018-12-01T15:38:16.724Z,7.50
2018-12-01T15:40:48.982Z,7.50
2018-12-01T15:43:18.729Z,7.50
2018-12-01T15:45:48.178Z,7.40
2018-12-01T15:48:17.922Z,7.40
2018-12-01T15:50:47.571Z,7.40
2018-12-01T15:53:17.256Z,7.30
2018-12-01T15:55:47.076Z,7.30
2018-12-01T15:58:16.671Z,7.20
2018-12-01T16:00:46.518Z,7.20
2018-12-01T16:03:15.912Z,7.20
2018-12-01T16:05:45.535Z,7.20
2018-12-01T16:08:15.196Z,7.10
2018-12-01T16:10:44.755Z,7.10
2018-12-01T16:13:17.178Z,7.10
2018-12-01T16:16:03.703Z,7.10
2018-12-01T16:18:33.509Z,7.10
2018-12-01T16:21:03.227Z,7.00
2018-12-01T16:23:32.937Z,7.10
2018-12-01T16:26:02.661Z,7.00
2018-12-01T16:28:32.310Z,7.00
2018-12-01T16:31:02.010Z,7.00
2018-12-01T16:33:31.574Z,6.90
2018-12-01T16:36:01.492Z,6.90
2018-12-01T16:38:32.549Z,7.00
2018-12-01T16:41:15.187Z,7.00
2018-12-01T16:43:44.608Z,6.90
2018-12-01T16:46:14.216Z,6.90
2018-12-01T16:48:43.840Z,6.90
2018-12-01T16:51:13.537Z,6.90
2018-12-01T16:53:43.351Z,6.90
2018-12-01T16:56:12.946Z,6.80
2018-12-01T16:58:42.539Z,6.90
2018-12-01T17:01:12.272Z,6.90
2018-12-01T17:03:41.750Z,6.90
2018-12-01T17:06:15.375Z,6.90
2018-12-01T17:08:45.129Z,6.90
2018-12-01T17:11:15.010Z,6.90
2018-12-01T17:13:44.675Z,6.90
2018-12-01T17:16:14.496Z,6.80
2018-12-01T17:18:44.103Z,6.90
2018-12-01T17:21:13.732Z,6.90
2018-12-01T17:23:43.324Z,6.80
2018-12-01T17:26:12.814Z,6.80
2018-12-01T17:28:42.459Z,6.90
2018-12-01T17:31:12.163Z,6.80
2018-12-01T17:33:41.916Z,6.90
2018-12-01T17:36:11.683Z,6.80
2018-12-01T17:38:41.162Z,6.80
2018-12-01T17:41:12.416Z,6.80
2018-12-01T17:43:45.168Z,6.80
2018-12-01T17:46:14.872Z,6.80
2018-12-01T17:48:44.720Z,6.80
2018-12-01T17:51:14.433Z,6.80
2018-12-01T17:53:48.347Z,6.80
2018-12-01T17:56:18.145Z,6.80
2018-12-01T17:58:47.779Z,6.70
2018-12-01T18:01:17.440Z,6.70
2018-12-01T18:03:47.283Z,6.70
2018-12-01T18:06:16.998Z,6.70
2018-12-01T18:08:46.622Z,6.70
2018-12-01T18:11:16.624Z,6.70
2018-12-01T18:13:46.145Z,6.70
2018-12-01T18:16:15.665Z,6.70
2018-12-01T18:18:45.320Z,6.70
2018-12-01T18:21:15.193Z,6.60
2018-12-01T18:23:44.863Z,6.60
2018-12-01T18:26:14.669Z,6.60
2018-12-01T18:28:46.858Z,6.50
2018-12-01T18:31:20.271Z,6.60
2018-12-01T18:33:53.835Z,6.50
2018-12-01T18:36:23.498Z,6.60
2018-12-01T18:38:53.201Z,6.60
2018-12-01T18:41:22.756Z,6.60
2018-12-01T18:43:52.561Z,6.60
2018-12-01T18:46:22.284Z,6.70
2018-12-01T18:48:52.040Z,6.70
2018-12-01T18:51:22.845Z,6.70
2018-12-01T18:53:52.623Z,6.70
2018-12-01T18:56:22.520Z,6.70
2018-12-01T18:58:52.247Z,6.70
2018-12-01T19:01:21.747Z,6.70
2018-12-01T19:03:51.337Z,6.70
2018-12-01T19:06:21.281Z,6.70
2018-12-01T19:08:50.683Z,6.70
2018-12-01T19:11:20.121Z,6.70
2018-12-01T19:13:49.540Z,6.80
2018-12-01T19:16:18.969Z,6.80
2018-12-01T19:18:48.459Z,6.80
2018-12-01T19:21:17.931Z,6.90
2018-12-01T19:23:47.540Z,6.90
2018-12-01T19:26:17.268Z,6.90
2018-12-01T19:28:47.337Z,6.90
2018-12-01T19:31:16.948Z,6.90
2018-12-01T19:33:46.510Z,6.90
2018-12-01T19:36:16.098Z,6.90
2018-12-01T19:38:45.958Z,6.90
2018-12-01T19:41:15.810Z,7.00
2018-12-01T19:43:45.326Z,7.00
2018-12-01T19:46:14.898Z,7.00
2018-12-01T19:48:44.685Z,7.00
2018-12-01T19:51:15.219Z,7.00
2018-12-01T19:53:44.950Z,7.00
2018-12-01T19:56:14.617Z,7.00
2018-12-01T19:58:44.304Z,7.00
2018-12-01T20:01:13.667Z,7.00
2018-12-01T20:03:43.387Z,7.00
2018-12-01T20:06:13.066Z,7.00
2018-12-01T20:08:42.830Z,7.00
2018-12-01T20:11:12.392Z,7.00
2018-12-01T20:13:44.167Z,7.00
2018-12-01T20:16:25.978Z,7.00
2018-12-01T20:18:55.763Z,7.00
2018-12-01T20:21:25.446Z,7.00
2018-12-01T20:23:55.211Z,7.00
2018-12-01T20:26:25.041Z,7.00
2018-12-01T20:28:54.701Z,7.00
2018-12-01T20:31:24.530Z,7.00
2018-12-01T20:33:55.592Z,7.00
2018-12-01T20:36:27.389Z,7.00
2018-12-01T20:39:13.256Z,6.90
2018-12-01T20:41:42.944Z,7.00
2018-12-01T20:44:13.046Z,7.00
2018-12-01T20:46:42.811Z,7.00
2018-12-01T20:49:13.260Z,7.00
2018-12-01T20:51:43.127Z,7.10
2018-12-01T20:54:20.457Z,7.10
2018-12-01T20:56:50.207Z,7.10
2018-12-01T20:59:19.961Z,7.10
2018-12-01T21:01:49.703Z,7.00
2018-12-01T21:04:19.438Z,7.10
2018-12-01T21:06:49.124Z,7.10
2018-12-01T21:09:18.903Z,7.10
2018-12-01T21:11:48.644Z,7.10
2018-12-01T21:14:18.270Z,7.10
2018-12-01T21:16:47.986Z,7.10
2018-12-01T21:19:17.599Z,7.10
2018-12-01T21:21:47.412Z,7.10
2018-12-01T21:24:17.073Z,7.10
2018-12-01T21:26:46.859Z,7.10
2018-12-01T21:29:16.448Z,7.20
2018-12-01T21:31:46.260Z,7.10
2018-12-01T21:34:15.856Z,7.10
2018-12-01T21:36:45.574Z,7.10
2018-12-01T21:39:15.175Z,7.20
2018-12-01T21:41:44.784Z,7.10
2018-12-01T21:44:14.456Z,7.10
2018-12-01T21:46:43.901Z,7.20
2018-12-01T21:49:13.496Z,7.20
2018-12-01T21:51:43.204Z,7.20
2018-12-01T21:54:12.883Z,7.10
2018-12-01T21:56:44.043Z,7.20
2018-12-01T21:59:20.100Z,7.20
2018-12-01T22:01:50.150Z,7.20
2018-12-01T22:04:20.098Z,7.20
2018-12-01T22:06:49.576Z,7.20
2018-12-01T22:09:19.258Z,7.20
2018-12-01T22:11:48.924Z,7.20
2018-12-01T22:14:18.416Z,7.20
2018-12-01T22:16:47.963Z,7.20
2018-12-01T22:19:17.530Z,7.20
2018-12-01T22:21:47.228Z,7.20
2018-12-01T22:24:16.947Z,7.20
2018-12-01T22:26:46.370Z,7.20
2018-12-01T22:29:15.884Z,7.20
2018-12-01T22:31:45.314Z,7.20
2018-12-01T22:34:15.503Z,7.20
2018-12-01T22:36:46.824Z,7.20
2018-12-01T22:39:16.340Z,7.20
2018-12-01T22:41:46.038Z,7.20
2018-12-01T22:44:15.759Z,7.20
2018-12-01T22:46:45.400Z,7.10
2018-12-01T22:49:15.711Z,7.20
2018-12-01T22:51:44.793Z,7.20
2018-12-01T22:54:14.570Z,7.20
2018-12-01T22:56:44.256Z,7.10
2018-12-01T22:59:13.746Z,7.10
2018-12-01T23:01:43.286Z,7.10
2018-12-01T23:04:12.952Z,7.20
2018-12-01T23:06:42.708Z,7.20
2018-12-01T23:09:12.360Z,7.20
2018-12-01T23:11:41.990Z,7.20
2018-12-01T23:14:11.802Z,7.20
2018-12-01T23:16:41.225Z,7.20
2018-12-01T23:19:10.641Z,7.20
2018-12-01T23:21:40.348Z,7.20
2018-12-01T23:24:09.912Z,7.20
2018-12-01T23:26:39.342Z,7.20
2018-12-01T23:29:09.111Z,7.20
2018-12-01T23:31:39.784Z,7.20
2018-12-01T23:34:09.416Z,7.20
2018-12-01T23:36:39.261Z,7.20
2018-12-01T23:39:08.678Z,7.20
2018-12-01T23:41:38.298Z,7.10
2018-12-01T23:44:10.002Z,7.10
2018-12-01T23:46:39.535Z,7.00
2018-12-01T23:49:09.125Z,7.00
2018-12-01T23:51:38.860Z,7.10
2018-12-01T23:54:08.543Z,7.00
2018-12-01T23:56:38.410Z,7.00
2018-12-01T23:59:07.907Z,7.10
